sensor_id;sensor_type;location;lat;lon;timestamp;P1;durP1;ratioP1;P2;durP2;ratioP2
49296;SDS011;35163;48.878;18.040;2022-12-18T00:01:05;67.05;;;26.10;;
49296;SDS011;35163;48.878;18.040;2022-12-18T00:03:40;67.30;;;28.45;;
49296;SDS011;35163;48.878;18.040;2022-12-18T00:06:08;65.07;;;28.77;;
49296;SDS011;35163;48.878;18.040;2022-12-18T00:08:35;64.28;;;27.08;;
49296;SDS011;35163;48.878;18.040;2022-12-18T00:11:08;71.40;;;27.88;;
49296;SDS011;35163;48.878;18.040;2022-12-18T00:13:38;67.43;;;27.42;;
49296;SDS011;35163;48.878;18.040;2022-12-18T00:16:07;68.45;;;26.13;;
49296;SDS011;35163;48.878;18.040;2022-12-18T00:18:36;59.92;;;25.92;;
49296;SDS011;35163;48.878;18.040;2022-12-18T00:21:04;57.78;;;26.83;;
49296;SDS011;35163;48.878;18.040;2022-12-18T00:23:33;59.60;;;24.35;;
49296;SDS011;35163;48.878;18.040;2022-12-18T00:26:02;62.30;;;26.20;;
49296;SDS011;35163;48.878;18.040;2022-12-18T00:28:32;63.20;;;26.33;;
49296;SDS011;35163;48.878;18.040;2022-12-18T00:31:02;67.30;;;26.17;;
49296;SDS011;35163;48.878;18.040;2022-12-18T00:33:30;70.07;;;27.05;;
49296;SDS011;35163;48.878;18.040;2022-12-18T00:36:04;61.10;;;25.00;;
49296;SDS011;35163;48.878;18.040;2022-12-18T00:38:33;61.97;;;25.85;;
49296;SDS011;35163;48.878;18.040;2022-12-18T00:41:01;70.50;;;25.17;;
49296;SDS011;35163;48.878;18.040;2022-12-18T00:43:28;70.45;;;27.05;;
49296;SDS011;35163;48.878;18.040;2022-12-18T00:45:54;63.10;;;26.27;;
49296;SDS011;35163;48.878;18.040;2022-12-18T00:48:21;66.63;;;24.90;;
49296;SDS011;35163;48.878;18.040;2022-12-18T00:50:48;63.45;;;27.08;;
49296;SDS011;35163;48.878;18.040;2022-12-18T00:53:16;73.38;;;28.80;;
49296;SDS011;35163;48.878;18.040;2022-12-18T00:55:43;68.65;;;26.90;;
49296;SDS011;35163;48.878;18.040;2022-12-18T00:58:10;66.70;;;27.65;;
49296;SDS011;35163;48.878;18.040;2022-12-18T01:00:37;65.30;;;25.63;;
49296;SDS011;35163;48.878;18.040;2022-12-18T01:03:04;73.78;;;26.63;;
49296;SDS011;35163;48.878;18.040;2022-12-18T01:05:31;66.95;;;25.92;;
49296;SDS011;35163;48.878;18.040;2022-12-18T01:07:59;66.78;;;27.20;;
49296;SDS011;35163;48.878;18.040;2022-12-18T01:10:26;64.68;;;24.58;;
49296;SDS011;35163;48.878;18.040;2022-12-18T01:12:52;71.75;;;26.33;;
49296;SDS011;35163;48.878;18.040;2022-12-18T01:15:20;63.95;;;26.95;;
49296;SDS011;35163;48.878;18.040;2022-12-18T01:17:46;69.40;;;26.25;;
49296;SDS011;35163;48.878;18.040;2022-12-18T01:20:13;72.13;;;26.33;;
49296;SDS011;35163;48.878;18.040;2022-12-18T01:22:40;66.53;;;26.08;;
49296;SDS011;35163;48.878;18.040;2022-12-18T01:25:06;68.13;;;24.23;;
49296;SDS011;35163;48.878;18.040;2022-12-18T01:27:34;69.88;;;26.42;;
49296;SDS011;35163;48.878;18.040;2022-12-18T01:30:00;63.97;;;24.70;;
49296;SDS011;35163;48.878;18.040;2022-12-18T01:32:29;68.90;;;28.15;;
49296;SDS011;35163;48.878;18.040;2022-12-18T01:34:57;63.25;;;25.75;;
49296;SDS011;35163;48.878;18.040;2022-12-18T01:37:24;74.57;;;30.08;;
49296;SDS011;35163;48.878;18.040;2022-12-18T01:39:51;67.82;;;26.15;;
49296;SDS011;35163;48.878;18.040;2022-12-18T01:42:20;70.07;;;26.55;;
49296;SDS011;35163;48.878;18.040;2022-12-18T01:47:35;80.72;;;28.52;;
49296;SDS011;35163;48.878;18.040;2022-12-18T01:50:09;72.00;;;28.73;;
49296;SDS011;35163;48.878;18.040;2022-12-18T01:52:36;61.65;;;24.40;;
49296;SDS011;35163;48.878;18.040;2022-12-18T01:55:09;64.68;;;27.17;;
49296;SDS011;35163;48.878;18.040;2022-12-18T01:57:38;67.25;;;24.42;;
49296;SDS011;35163;48.878;18.040;2022-12-18T02:00:16;66.07;;;24.60;;
49296;SDS011;35163;48.878;18.040;2022-12-18T02:02:45;75.47;;;28.15;;
49296;SDS011;35163;48.878;18.040;2022-12-18T02:05:17;77.22;;;27.77;;
49296;SDS011;35163;48.878;18.040;2022-12-18T02:08:10;61.88;;;23.27;;
49296;SDS011;35163;48.878;18.040;2022-12-18T02:13:19;63.55;;;25.00;;
49296;SDS011;35163;48.878;18.040;2022-12-18T02:16:02;70.15;;;26.15;;
49296;SDS011;35163;48.878;18.040;2022-12-18T02:18:44;65.93;;;26.05;;
49296;SDS011;35163;48.878;18.040;2022-12-18T02:21:23;70.55;;;25.67;;
49296;SDS011;35163;48.878;18.040;2022-12-18T02:26:53;72.25;;;27.58;;
49296;SDS011;35163;48.878;18.040;2022-12-18T02:29:29;69.28;;;27.63;;
49296;SDS011;35163;48.878;18.040;2022-12-18T02:32:02;61.92;;;23.95;;
49296;SDS011;35163;48.878;18.040;2022-12-18T02:34:34;69.63;;;27.48;;
49296;SDS011;35163;48.878;18.040;2022-12-18T02:37:04;62.63;;;25.90;;
49296;SDS011;35163;48.878;18.040;2022-12-18T02:39:38;68.03;;;25.35;;
49296;SDS011;35163;48.878;18.040;2022-12-18T02:42:07;73.43;;;28.02;;
49296;SDS011;35163;48.878;18.040;2022-12-18T02:44:35;59.17;;;23.92;;
49296;SDS011;35163;48.878;18.040;2022-12-18T02:47:11;65.10;;;25.67;;
49296;SDS011;35163;48.878;18.040;2022-12-18T03:00:23;77.65;;;30.85;;
49296;SDS011;35163;48.878;18.040;2022-12-18T03:05:40;75.75;;;29.17;;
49296;SDS011;35163;48.878;18.040;2022-12-18T03:08:24;74.32;;;27.35;;
49296;SDS011;35163;48.878;18.040;2022-12-18T03:11:07;71.57;;;30.27;;
49296;SDS011;35163;48.878;18.040;2022-12-18T03:13:40;70.63;;;27.33;;
49296;SDS011;35163;48.878;18.040;2022-12-18T03:16:10;73.78;;;27.10;;
49296;SDS011;35163;48.878;18.040;2022-12-18T03:18:48;72.28;;;28.08;;
49296;SDS011;35163;48.878;18.040;2022-12-18T03:21:21;66.78;;;25.52;;
49296;SDS011;35163;48.878;18.040;2022-12-18T03:23:56;66.90;;;26.67;;
49296;SDS011;35163;48.878;18.040;2022-12-18T03:26:24;67.72;;;25.05;;
49296;SDS011;35163;48.878;18.040;2022-12-18T03:28:53;58.75;;;25.75;;
49296;SDS011;35163;48.878;18.040;2022-12-18T03:31:26;58.80;;;25.42;;
49296;SDS011;35163;48.878;18.040;2022-12-18T03:33:57;71.60;;;24.48;;
49296;SDS011;35163;48.878;18.040;2022-12-18T03:36:27;70.65;;;24.65;;
49296;SDS011;35163;48.878;18.040;2022-12-18T03:38:57;65.50;;;24.75;;
49296;SDS011;35163;48.878;18.040;2022-12-18T03:44:03;66.45;;;25.33;;
49296;SDS011;35163;48.878;18.040;2022-12-18T03:49:46;68.90;;;26.05;;
49296;SDS011;35163;48.878;18.040;2022-12-18T03:52:20;76.28;;;28.35;;
49296;SDS011;35163;48.878;18.040;2022-12-18T03:57:21;77.85;;;28.30;;
49296;SDS011;35163;48.878;18.040;2022-12-18T03:59:54;78.55;;;28.00;;
49296;SDS011;35163;48.878;18.040;2022-12-18T04:02:23;64.90;;;25.13;;
49296;SDS011;35163;48.878;18.040;2022-12-18T04:04:55;61.35;;;23.27;;
49296;SDS011;35163;48.878;18.040;2022-12-18T04:07:25;61.85;;;24.73;;
49296;SDS011;35163;48.878;18.040;2022-12-18T04:09:54;64.72;;;24.05;;
49296;SDS011;35163;48.878;18.040;2022-12-18T04:12:24;70.82;;;23.02;;
49296;SDS011;35163;48.878;18.040;2022-12-18T04:14:54;57.65;;;22.20;;
49296;SDS011;35163;48.878;18.040;2022-12-18T04:17:21;71.60;;;25.52;;
49296;SDS011;35163;48.878;18.040;2022-12-18T04:19:48;80.05;;;25.83;;
49296;SDS011;35163;48.878;18.040;2022-12-18T04:22:15;64.28;;;25.00;;
49296;SDS011;35163;48.878;18.040;2022-12-18T04:24:42;59.67;;;24.20;;
49296;SDS011;35163;48.878;18.040;2022-12-18T04:27:09;64.75;;;26.33;;
49296;SDS011;35163;48.878;18.040;2022-12-18T04:29:35;65.15;;;23.83;;
49296;SDS011;35163;48.878;18.040;2022-12-18T04:32:02;63.25;;;25.42;;
49296;SDS011;35163;48.878;18.040;2022-12-18T04:34:29;59.33;;;23.33;;
49296;SDS011;35163;48.878;18.040;2022-12-18T04:36:56;62.15;;;27.08;;
49296;SDS011;35163;48.878;18.040;2022-12-18T04:39:22;79.60;;;28.48;;
49296;SDS011;35163;48.878;18.040;2022-12-18T04:41:50;72.72;;;25.95;;
49296;SDS011;35163;48.878;18.040;2022-12-18T04:44:16;67.53;;;26.88;;
49296;SDS011;35163;48.878;18.040;2022-12-18T04:46:43;64.20;;;24.83;;
49296;SDS011;35163;48.878;18.040;2022-12-18T04:49:10;64.45;;;25.38;;
49296;SDS011;35163;48.878;18.040;2022-12-18T04:51:37;64.78;;;22.25;;
49296;SDS011;35163;48.878;18.040;2022-12-18T04:54:04;77.93;;;25.58;;
49296;SDS011;35163;48.878;18.040;2022-12-18T04:56:31;63.15;;;25.40;;
49296;SDS011;35163;48.878;18.040;2022-12-18T04:58:58;60.15;;;24.48;;
49296;SDS011;35163;48.878;18.040;2022-12-18T05:01:24;61.42;;;23.67;;
49296;SDS011;35163;48.878;18.040;2022-12-18T05:03:59;58.90;;;22.65;;
49296;SDS011;35163;48.878;18.040;2022-12-18T05:06:26;68.88;;;23.33;;
49296;SDS011;35163;48.878;18.040;2022-12-18T05:08:53;67.75;;;25.08;;
49296;SDS011;35163;48.878;18.040;2022-12-18T05:11:20;58.38;;;23.08;;
49296;SDS011;35163;48.878;18.040;2022-12-18T05:13:46;60.25;;;24.52;;
49296;SDS011;35163;48.878;18.040;2022-12-18T05:16:13;60.40;;;21.30;;
49296;SDS011;35163;48.878;18.040;2022-12-18T05:18:41;62.35;;;21.98;;
49296;SDS011;35163;48.878;18.040;2022-12-18T05:21:08;62.08;;;23.10;;
49296;SDS011;35163;48.878;18.040;2022-12-18T05:23:34;57.38;;;22.02;;
49296;SDS011;35163;48.878;18.040;2022-12-18T05:26:03;52.88;;;21.42;;
49296;SDS011;35163;48.878;18.040;2022-12-18T05:28:32;54.97;;;19.55;;
49296;SDS011;35163;48.878;18.040;2022-12-18T05:31:01;63.95;;;22.83;;
49296;SDS011;35163;48.878;18.040;2022-12-18T05:33:30;57.35;;;21.63;;
49296;SDS011;35163;48.878;18.040;2022-12-18T05:36:00;56.25;;;21.95;;
49296;SDS011;35163;48.878;18.040;2022-12-18T05:38:28;61.05;;;23.48;;
49296;SDS011;35163;48.878;18.040;2022-12-18T05:40:56;63.92;;;23.70;;
49296;SDS011;35163;48.878;18.040;2022-12-18T05:43:23;57.22;;;23.50;;
49296;SDS011;35163;48.878;18.040;2022-12-18T05:45:51;62.63;;;23.58;;
49296;SDS011;35163;48.878;18.040;2022-12-18T05:48:19;63.20;;;24.20;;
49296;SDS011;35163;48.878;18.040;2022-12-18T05:50:46;55.97;;;23.88;;
49296;SDS011;35163;48.878;18.040;2022-12-18T05:53:15;63.83;;;23.50;;
49296;SDS011;35163;48.878;18.040;2022-12-18T05:55:43;59.28;;;24.33;;
49296;SDS011;35163;48.878;18.040;2022-12-18T05:58:11;65.40;;;24.23;;
49296;SDS011;35163;48.878;18.040;2022-12-18T06:00:42;76.72;;;24.98;;
49296;SDS011;35163;48.878;18.040;2022-12-18T06:03:11;63.88;;;23.50;;
49296;SDS011;35163;48.878;18.040;2022-12-18T06:05:41;62.00;;;22.90;;
49296;SDS011;35163;48.878;18.040;2022-12-18T06:08:10;69.93;;;24.65;;
49296;SDS011;35163;48.878;18.040;2022-12-18T06:10:37;67.85;;;26.42;;
49296;SDS011;35163;48.878;18.040;2022-12-18T06:13:05;74.45;;;26.33;;
49296;SDS011;35163;48.878;18.040;2022-12-18T06:15:32;63.50;;;26.27;;
49296;SDS011;35163;48.878;18.040;2022-12-18T06:18:00;67.45;;;26.13;;
49296;SDS011;35163;48.878;18.040;2022-12-18T06:20:27;75.95;;;25.80;;
49296;SDS011;35163;48.878;18.040;2022-12-18T06:22:59;68.00;;;24.75;;
49296;SDS011;35163;48.878;18.040;2022-12-18T06:25:25;61.30;;;23.92;;
49296;SDS011;35163;48.878;18.040;2022-12-18T06:27:52;74.93;;;26.45;;
49296;SDS011;35163;48.878;18.040;2022-12-18T06:30:19;73.65;;;26.00;;
49296;SDS011;35163;48.878;18.040;2022-12-18T06:32:47;76.60;;;28.02;;
49296;SDS011;35163;48.878;18.040;2022-12-18T06:35:21;66.65;;;25.27;;
49296;SDS011;35163;48.878;18.040;2022-12-18T06:37:48;51.97;;;22.13;;
49296;SDS011;35163;48.878;18.040;2022-12-18T06:40:15;66.85;;;23.38;;
49296;SDS011;35163;48.878;18.040;2022-12-18T06:42:42;66.90;;;26.30;;
49296;SDS011;35163;48.878;18.040;2022-12-18T06:45:09;70.72;;;23.48;;
49296;SDS011;35163;48.878;18.040;2022-12-18T06:47:36;55.47;;;23.77;;
49296;SDS011;35163;48.878;18.040;2022-12-18T06:50:02;68.13;;;25.20;;
49296;SDS011;35163;48.878;18.040;2022-12-18T06:52:31;66.97;;;23.55;;
49296;SDS011;35163;48.878;18.040;2022-12-18T06:54:58;66.78;;;24.73;;
49296;SDS011;35163;48.878;18.040;2022-12-18T06:57:25;67.13;;;25.02;;
49296;SDS011;35163;48.878;18.040;2022-12-18T06:59:51;63.78;;;23.67;;
49296;SDS011;35163;48.878;18.040;2022-12-18T07:02:18;74.63;;;25.40;;
49296;SDS011;35163;48.878;18.040;2022-12-18T07:04:45;68.38;;;24.92;;
49296;SDS011;35163;48.878;18.040;2022-12-18T07:07:12;71.40;;;25.98;;
49296;SDS011;35163;48.878;18.040;2022-12-18T07:09:38;75.53;;;26.90;;
49296;SDS011;35163;48.878;18.040;2022-12-18T07:12:05;72.28;;;28.27;;
49296;SDS011;35163;48.878;18.040;2022-12-18T07:14:32;60.78;;;22.38;;
49296;SDS011;35163;48.878;18.040;2022-12-18T07:16:59;65.45;;;24.73;;
49296;SDS011;35163;48.878;18.040;2022-12-18T07:19:26;66.90;;;24.45;;
49296;SDS011;35163;48.878;18.040;2022-12-18T07:21:54;62.65;;;25.90;;
49296;SDS011;35163;48.878;18.040;2022-12-18T07:24:20;72.88;;;26.13;;
49296;SDS011;35163;48.878;18.040;2022-12-18T07:26:47;65.38;;;26.52;;
49296;SDS011;35163;48.878;18.040;2022-12-18T07:29:14;66.15;;;25.05;;
49296;SDS011;35163;48.878;18.040;2022-12-18T07:31:40;70.63;;;25.27;;
49296;SDS011;35163;48.878;18.040;2022-12-18T07:34:11;62.53;;;23.77;;
49296;SDS011;35163;48.878;18.040;2022-12-18T07:36:38;65.75;;;23.27;;
49296;SDS011;35163;48.878;18.040;2022-12-18T07:39:05;64.57;;;24.67;;
49296;SDS011;35163;48.878;18.040;2022-12-18T07:41:32;67.57;;;24.42;;
49296;SDS011;35163;48.878;18.040;2022-12-18T07:43:58;64.50;;;22.75;;
49296;SDS011;35163;48.878;18.040;2022-12-18T07:46:25;56.30;;;23.13;;
49296;SDS011;35163;48.878;18.040;2022-12-18T07:48:52;66.43;;;21.70;;
49296;SDS011;35163;48.878;18.040;2022-12-18T07:51:18;63.28;;;22.75;;
49296;SDS011;35163;48.878;18.040;2022-12-18T07:53:45;64.05;;;24.00;;
49296;SDS011;35163;48.878;18.040;2022-12-18T07:56:17;54.13;;;22.23;;
49296;SDS011;35163;48.878;18.040;2022-12-18T07:58:54;64.28;;;23.45;;
49296;SDS011;35163;48.878;18.040;2022-12-18T08:01:24;85.82;;;26.20;;
49296;SDS011;35163;48.878;18.040;2022-12-18T08:03:51;64.03;;;25.27;;
49296;SDS011;35163;48.878;18.040;2022-12-18T08:06:18;63.42;;;25.17;;
49296;SDS011;35163;48.878;18.040;2022-12-18T08:08:50;75.10;;;28.35;;
49296;SDS011;35163;48.878;18.040;2022-12-18T08:11:17;69.35;;;27.73;;
49296;SDS011;35163;48.878;18.040;2022-12-18T08:13:46;68.55;;;26.80;;
49296;SDS011;35163;48.878;18.040;2022-12-18T08:16:14;64.40;;;23.20;;
49296;SDS011;35163;48.878;18.040;2022-12-18T08:18:40;65.30;;;23.92;;
49296;SDS011;35163;48.878;18.040;2022-12-18T08:21:11;68.00;;;25.23;;
49296;SDS011;35163;48.878;18.040;2022-12-18T08:23:46;58.17;;;23.27;;
49296;SDS011;35163;48.878;18.040;2022-12-18T08:26:16;63.90;;;24.23;;
49296;SDS011;35163;48.878;18.040;2022-12-18T08:28:44;67.60;;;23.27;;
49296;SDS011;35163;48.878;18.040;2022-12-18T08:31:11;61.42;;;24.35;;
49296;SDS011;35163;48.878;18.040;2022-12-18T08:33:38;54.58;;;20.58;;
49296;SDS011;35163;48.878;18.040;2022-12-18T08:36:06;62.60;;;24.27;;
49296;SDS011;35163;48.878;18.040;2022-12-18T08:38:35;60.85;;;24.15;;
49296;SDS011;35163;48.878;18.040;2022-12-18T08:41:02;60.90;;;23.20;;
49296;SDS011;35163;48.878;18.040;2022-12-18T08:43:33;62.03;;;22.55;;
49296;SDS011;35163;48.878;18.040;2022-12-18T08:46:19;57.22;;;22.35;;
49296;SDS011;35163;48.878;18.040;2022-12-18T08:48:47;71.75;;;25.77;;
49296;SDS011;35163;48.878;18.040;2022-12-18T08:51:16;60.92;;;24.17;;
49296;SDS011;35163;48.878;18.040;2022-12-18T08:53:43;63.78;;;25.35;;
49296;SDS011;35163;48.878;18.040;2022-12-18T08:56:10;68.20;;;24.95;;
49296;SDS011;35163;48.878;18.040;2022-12-18T08:58:41;70.80;;;26.65;;
49296;SDS011;35163;48.878;18.040;2022-12-18T09:01:09;70.38;;;25.50;;
49296;SDS011;35163;48.878;18.040;2022-12-18T09:03:37;72.03;;;25.15;;
49296;SDS011;35163;48.878;18.040;2022-12-18T09:06:05;55.53;;;22.73;;
49296;SDS011;35163;48.878;18.040;2022-12-18T09:08:32;65.40;;;24.48;;
49296;SDS011;35163;48.878;18.040;2022-12-18T09:11:03;63.90;;;24.27;;
49296;SDS011;35163;48.878;18.040;2022-12-18T09:13:30;70.00;;;26.88;;
49296;SDS011;35163;48.878;18.040;2022-12-18T09:15:57;74.55;;;27.05;;
49296;SDS011;35163;48.878;18.040;2022-12-18T09:18:24;58.53;;;24.85;;
49296;SDS011;35163;48.878;18.040;2022-12-18T09:20:51;65.70;;;25.25;;
49296;SDS011;35163;48.878;18.040;2022-12-18T09:23:19;56.50;;;22.33;;
49296;SDS011;35163;48.878;18.040;2022-12-18T09:25:49;59.17;;;22.00;;
49296;SDS011;35163;48.878;18.040;2022-12-18T09:28:16;54.83;;;22.13;;
49296;SDS011;35163;48.878;18.040;2022-12-18T09:30:45;67.40;;;23.52;;
49296;SDS011;35163;48.878;18.040;2022-12-18T09:33:16;61.90;;;23.98;;
49296;SDS011;35163;48.878;18.040;2022-12-18T09:35:46;72.28;;;25.40;;
49296;SDS011;35163;48.878;18.040;2022-12-18T09:38:15;66.35;;;25.50;;
49296;SDS011;35163;48.878;18.040;2022-12-18T09:43:17;60.60;;;24.40;;
49296;SDS011;35163;48.878;18.040;2022-12-18T09:46:06;63.97;;;25.42;;
49296;SDS011;35163;48.878;18.040;2022-12-18T09:48:40;68.47;;;24.45;;
49296;SDS011;35163;48.878;18.040;2022-12-18T09:51:15;65.93;;;26.27;;
49296;SDS011;35163;48.878;18.040;2022-12-18T09:53:46;66.82;;;26.23;;
49296;SDS011;35163;48.878;18.040;2022-12-18T09:56:22;53.72;;;22.05;;
49296;SDS011;35163;48.878;18.040;2022-12-18T09:58:58;60.15;;;23.17;;
49296;SDS011;35163;48.878;18.040;2022-12-18T10:01:26;73.63;;;25.08;;
49296;SDS011;35163;48.878;18.040;2022-12-18T10:04:07;71.18;;;26.80;;
49296;SDS011;35163;48.878;18.040;2022-12-18T10:06:41;64.45;;;24.50;;
49296;SDS011;35163;48.878;18.040;2022-12-18T10:09:32;62.17;;;24.45;;
49296;SDS011;35163;48.878;18.040;2022-12-18T10:14:49;61.85;;;24.42;;
49296;SDS011;35163;48.878;18.040;2022-12-18T10:20:42;59.38;;;21.52;;
49296;SDS011;35163;48.878;18.040;2022-12-18T10:23:29;72.63;;;25.48;;
49296;SDS011;35163;48.878;18.040;2022-12-18T10:26:06;69.03;;;25.55;;
49296;SDS011;35163;48.878;18.040;2022-12-18T10:28:36;69.88;;;27.02;;
49296;SDS011;35163;48.878;18.040;2022-12-18T10:31:22;73.65;;;27.35;;
49296;SDS011;35163;48.878;18.040;2022-12-18T10:33:50;77.00;;;26.67;;
49296;SDS011;35163;48.878;18.040;2022-12-18T10:36:20;74.70;;;27.13;;
49296;SDS011;35163;48.878;18.040;2022-12-18T10:38:49;69.25;;;25.40;;
49296;SDS011;35163;48.878;18.040;2022-12-18T10:43:47;62.88;;;24.38;;
49296;SDS011;35163;48.878;18.040;2022-12-18T10:46:15;62.03;;;23.80;;
49296;SDS011;35163;48.878;18.040;2022-12-18T10:51:28;82.47;;;29.17;;
49296;SDS011;35163;48.878;18.040;2022-12-18T10:56:52;77.82;;;30.23;;
49296;SDS011;35163;48.878;18.040;2022-12-18T10:59:53;79.60;;;29.10;;
49296;SDS011;35163;48.878;18.040;2022-12-18T11:02:33;76.32;;;29.05;;
49296;SDS011;35163;48.878;18.040;2022-12-18T11:05:01;66.80;;;24.85;;
49296;SDS011;35163;48.878;18.040;2022-12-18T11:07:48;59.58;;;24.55;;
49296;SDS011;35163;48.878;18.040;2022-12-18T11:10:17;74.45;;;27.95;;
49296;SDS011;35163;48.878;18.040;2022-12-18T11:12:45;71.28;;;25.80;;
49296;SDS011;35163;48.878;18.040;2022-12-18T11:15:20;72.97;;;28.52;;
49296;SDS011;35163;48.878;18.040;2022-12-18T11:17:50;63.63;;;25.13;;
49296;SDS011;35163;48.878;18.040;2022-12-18T11:20:34;80.55;;;29.42;;
49296;SDS011;35163;48.878;18.040;2022-12-18T11:23:03;78.38;;;28.48;;
49296;SDS011;35163;48.878;18.040;2022-12-18T11:25:32;74.55;;;27.80;;
49296;SDS011;35163;48.878;18.040;2022-12-18T11:28:05;74.68;;;27.35;;
49296;SDS011;35163;48.878;18.040;2022-12-18T11:31:08;70.30;;;26.40;;
49296;SDS011;35163;48.878;18.040;2022-12-18T11:33:52;71.60;;;26.40;;
49296;SDS011;35163;48.878;18.040;2022-12-18T11:36:46;68.93;;;25.40;;
49296;SDS011;35163;48.878;18.040;2022-12-18T11:39:49;71.60;;;26.45;;
49296;SDS011;35163;48.878;18.040;2022-12-18T11:53:00;65.47;;;26.30;;
49296;SDS011;35163;48.878;18.040;2022-12-18T11:58:47;62.70;;;24.80;;
49296;SDS011;35163;48.878;18.040;2022-12-18T12:04:20;68.07;;;26.92;;
49296;SDS011;35163;48.878;18.040;2022-12-18T12:09:41;72.45;;;25.40;;
49296;SDS011;35163;48.878;18.040;2022-12-18T12:17:52;60.63;;;22.85;;
49296;SDS011;35163;48.878;18.040;2022-12-18T12:23:15;66.65;;;24.20;;
49296;SDS011;35163;48.878;18.040;2022-12-18T12:30:54;65.93;;;25.67;;
49296;SDS011;35163;48.878;18.040;2022-12-18T12:36:42;59.17;;;22.85;;
49296;SDS011;35163;48.878;18.040;2022-12-18T12:39:23;57.50;;;22.95;;
49296;SDS011;35163;48.878;18.040;2022-12-18T12:41:56;59.90;;;23.38;;
49296;SDS011;35163;48.878;18.040;2022-12-18T12:44:50;58.25;;;22.77;;
49296;SDS011;35163;48.878;18.040;2022-12-18T12:47:33;68.03;;;23.33;;
49296;SDS011;35163;48.878;18.040;2022-12-18T12:50:06;61.83;;;22.98;;
49296;SDS011;35163;48.878;18.040;2022-12-18T12:52:45;61.95;;;22.90;;
49296;SDS011;35163;48.878;18.040;2022-12-18T12:55:19;70.13;;;26.10;;
49296;SDS011;35163;48.878;18.040;2022-12-18T13:00:20;72.85;;;24.95;;
49296;SDS011;35163;48.878;18.040;2022-12-18T13:08:10;58.88;;;22.17;;
49296;SDS011;35163;48.878;18.040;2022-12-18T13:10:49;59.65;;;23.10;;
49296;SDS011;35163;48.878;18.040;2022-12-18T13:13:51;54.38;;;22.38;;
49296;SDS011;35163;48.878;18.040;2022-12-18T13:16:24;53.67;;;22.17;;
49296;SDS011;35163;48.878;18.040;2022-12-18T13:18:54;65.88;;;24.00;;
49296;SDS011;35163;48.878;18.040;2022-12-18T13:21:27;58.10;;;22.95;;
49296;SDS011;35163;48.878;18.040;2022-12-18T13:23:55;54.72;;;20.83;;
49296;SDS011;35163;48.878;18.040;2022-12-18T13:28:54;65.15;;;23.30;;
49296;SDS011;35163;48.878;18.040;2022-12-18T13:36:54;61.58;;;24.48;;
49296;SDS011;35163;48.878;18.040;2022-12-18T13:39:30;69.72;;;25.60;;
49296;SDS011;35163;48.878;18.040;2022-12-18T13:44:34;72.35;;;25.25;;
49296;SDS011;35163;48.878;18.040;2022-12-18T13:49:54;76.00;;;24.75;;
49296;SDS011;35163;48.878;18.040;2022-12-18T13:52:24;68.05;;;24.75;;
49296;SDS011;35163;48.878;18.040;2022-12-18T13:54:55;70.40;;;25.20;;
49296;SDS011;35163;48.878;18.040;2022-12-18T13:57:30;55.53;;;21.35;;
49296;SDS011;35163;48.878;18.040;2022-12-18T14:00:16;71.03;;;25.15;;
49296;SDS011;35163;48.878;18.040;2022-12-18T14:02:49;62.42;;;22.92;;
49296;SDS011;35163;48.878;18.040;2022-12-18T14:05:23;59.03;;;23.63;;
49296;SDS011;35163;48.878;18.040;2022-12-18T14:08:10;60.50;;;21.88;;
49296;SDS011;35163;48.878;18.040;2022-12-18T14:10:40;62.22;;;25.25;;
49296;SDS011;35163;48.878;18.040;2022-12-18T14:16:03;70.20;;;25.75;;
49296;SDS011;35163;48.878;18.040;2022-12-18T14:21:17;66.95;;;24.75;;
49296;SDS011;35163;48.878;18.040;2022-12-18T14:24:06;87.45;;;29.58;;
49296;SDS011;35163;48.878;18.040;2022-12-18T14:26:43;81.88;;;32.40;;
49296;SDS011;35163;48.878;18.040;2022-12-18T14:32:16;75.75;;;29.23;;
49296;SDS011;35163;48.878;18.040;2022-12-18T14:34:48;68.60;;;26.60;;
49296;SDS011;35163;48.878;18.040;2022-12-18T14:37:25;74.13;;;28.15;;
49296;SDS011;35163;48.878;18.040;2022-12-18T14:40:00;72.40;;;27.80;;
49296;SDS011;35163;48.878;18.040;2022-12-18T14:42:36;66.93;;;27.85;;
49296;SDS011;35163;48.878;18.040;2022-12-18T14:48:07;72.20;;;25.70;;
49296;SDS011;35163;48.878;18.040;2022-12-18T14:50:40;79.20;;;26.60;;
49296;SDS011;35163;48.878;18.040;2022-12-18T14:53:18;84.28;;;29.20;;
49296;SDS011;35163;48.878;18.040;2022-12-18T14:55:47;62.05;;;26.38;;
49296;SDS011;35163;48.878;18.040;2022-12-18T14:58:18;75.00;;;27.77;;
49296;SDS011;35163;48.878;18.040;2022-12-18T15:00:45;68.43;;;26.17;;
49296;SDS011;35163;48.878;18.040;2022-12-18T15:03:12;71.50;;;27.85;;
49296;SDS011;35163;48.878;18.040;2022-12-18T15:05:45;72.03;;;27.48;;
49296;SDS011;35163;48.878;18.040;2022-12-18T15:08:27;72.72;;;27.60;;
49296;SDS011;35163;48.878;18.040;2022-12-18T15:11:02;79.28;;;29.48;;
49296;SDS011;35163;48.878;18.040;2022-12-18T15:13:34;64.70;;;28.13;;
49296;SDS011;35163;48.878;18.040;2022-12-18T15:16:01;74.18;;;26.65;;
49296;SDS011;35163;48.878;18.040;2022-12-18T15:18:32;73.32;;;27.52;;
49296;SDS011;35163;48.878;18.040;2022-12-18T15:21:08;70.20;;;25.65;;
49296;SDS011;35163;48.878;18.040;2022-12-18T15:26:10;80.07;;;27.08;;
49296;SDS011;35163;48.878;18.040;2022-12-18T15:28:52;74.45;;;27.75;;
49296;SDS011;35163;48.878;18.040;2022-12-18T15:31:31;75.47;;;28.92;;
49296;SDS011;35163;48.878;18.040;2022-12-18T15:36:36;70.10;;;26.58;;
49296;SDS011;35163;48.878;18.040;2022-12-18T15:39:03;71.50;;;28.58;;
49296;SDS011;35163;48.878;18.040;2022-12-18T15:41:32;73.43;;;28.35;;
49296;SDS011;35163;48.878;18.040;2022-12-18T15:44:01;70.35;;;26.95;;
49296;SDS011;35163;48.878;18.040;2022-12-18T15:46:29;67.22;;;27.60;;
49296;SDS011;35163;48.878;18.040;2022-12-18T15:48:57;69.85;;;27.35;;
49296;SDS011;35163;48.878;18.040;2022-12-18T15:51:31;86.82;;;31.25;;
49296;SDS011;35163;48.878;18.040;2022-12-18T15:54:00;79.95;;;29.38;;
49296;SDS011;35163;48.878;18.040;2022-12-18T15:56:30;72.45;;;29.52;;
49296;SDS011;35163;48.878;18.040;2022-12-18T15:59:17;71.68;;;28.05;;
49296;SDS011;35163;48.878;18.040;2022-12-18T16:01:49;81.78;;;30.05;;
49296;SDS011;35163;48.878;18.040;2022-12-18T16:04:19;78.45;;;28.10;;
49296;SDS011;35163;48.878;18.040;2022-12-18T16:06:47;78.32;;;29.42;;
49296;SDS011;35163;48.878;18.040;2022-12-18T16:09:35;75.22;;;27.63;;
49296;SDS011;35163;48.878;18.040;2022-12-18T16:12:02;78.00;;;29.00;;
49296;SDS011;35163;48.878;18.040;2022-12-18T16:14:29;82.57;;;29.13;;
49296;SDS011;35163;48.878;18.040;2022-12-18T16:16:58;78.85;;;29.08;;
49296;SDS011;35163;48.878;18.040;2022-12-18T16:19:26;78.00;;;29.30;;
49296;SDS011;35163;48.878;18.040;2022-12-18T16:21:54;93.38;;;31.77;;
49296;SDS011;35163;48.878;18.040;2022-12-18T16:24:23;82.15;;;33.05;;
49296;SDS011;35163;48.878;18.040;2022-12-18T16:26:52;87.18;;;32.30;;
49296;SDS011;35163;48.878;18.040;2022-12-18T16:29:20;90.93;;;32.45;;
49296;SDS011;35163;48.878;18.040;2022-12-18T16:31:51;90.03;;;32.20;;